메인 페이지
METAR-TAF:

METAR-TAF

공항 :

Fort Sill, 오클라호마, 미국

위도: 34-36N, 경도: 098-24W, 고도: 362m

현재 날씨관측

예보는 57분 전, 05:56시(UTC)에 발표되었습니다.
남동3kt
온도 21°C
습도 100%
기압 1013 hPa
시정: 16.1km
맑음

METAR: KFSI 210556Z AUTO 14003KT 10SM CLR 21/21 A2991 RMK AO2 SLP119 60003 T02110207 10307 20211 403400211 50005

시각: 01:53 (06:53 UTC)

예보

예보는 4 시간 42분 전, 02:11시(UTC)에 발표되었습니다.
예보 대상 시간: 21일 02시부터 22일 03시까지 (UTC)
12kt
시정 10km 이상
고도 5000ft 상공 구름 많음
전환 중
21일 11시부터 21일 12시까지 (UTC)
10kt, 순간 최대 풍속 15kt
시정: 8000m
고도 1500ft 상공 구름 많음
고도 3000ft 상공 구름 많음
약한소나기
일시적
21일 13시부터 21일 19시까지 (UTC)
여러 방향의 바람 20kt, 순간 최대 풍속 30kt
시정: 6000m
고도 1000ft 상공 구름 많음, 적란운.
고도 2500ft 상공 흐림
뇌우, 약한비
전환 중
21일 19시부터 21일 20시까지 (UTC)
북북동15kt
시정: 4800m
고도 500ft 상공 구름 많음
전환 중
21일 23시부터 21일 24시까지 (UTC)
북북동12kt
시정: 2113m
고도 500ft 상공 흐림
약한소나기

TAF: KFSI 210211Z 2102/2203 17012KT 9999 BKN050 QNH2981INS BECMG 2111/2112 19010G15KT 8000 -SHRA BKN015 BKN030 QNH2990INS TEMPO 2113/2119 VRB20G30KT 6000 -TSRA BKN010CB OVC025 BECMG 2119/2120 03015KT 4800 RA BKN005 QNH2997INS BECMG 2123/2124 02012KT 6000 -SHRA OVC005 QNH3005INS TX25/2121Z TN20/2112Z LAST NO AMDS AFT 2103 NEXT 2113

4,000개 이상의 공항 관측 자료 및 예보 (METAR 및 TAF 보고).

지도상에서 검색 가능한 기상관측소가 노란 점과 빨간 점으로 표시되어 있습니다.

기상관측소 명을 보려면 표시 위로 마우스를 이동하세요.

날씨 관측과 예보를 보려면 클릭하세요.

지도 변경 : 확대하려면 엑스 표시가 있는 녹색 버튼, 축소하려면 빼기 표시가 있는 녹색 버튼, 다음 페이지의 지도를 보려면 녹색 화살표를 클릭하세요.


METAR-TAF: